Latest Weather Observations for Ferny Creek

IDV60901

Issued at 12:41 pm EST Wednesday 29 July 2015 (issued every 10 minutes, with the page automatically refreshed every 10 minutes)

About weather observations | Map of Melbourne area stations | Latest observations for Melbourne area | Other Formats
Station Details ID: 086266 Name: FERNY CREEK Lat: -37.87 Lon: 145.35 Height: 512.9 m
Data from the previous 72 hours. | See also: Recent months at Ferny Creek
Date/Time
EST
Tmp

°C
App
Tmp
°C
Dew
Point
°C
Rel
Hum
%
Delta-T

°C
Wind Press
QNH
hPa
Press
MSL
hPa
Rain
since
9 am
mm
Dir
 
Spd
km/h
Gust
km/h
Spd
kts
Gust
kts
29/12:30pm 8.6 5.9 2.8 67 2.5 N 6 15 3 8 1030.3 1031.3 0.0
29/12:00pm 9.1 6.6 3.7 69 2.4 NNW 6 17 3 9 1031.0 1032.0 0.0
29/11:30am 8.7 6.1 4.1 73 2.1 N 7 17 4 9 1031.4 1032.3 0.0
29/11:00am 8.0 5.5 3.5 73 2.0 NNW 6 11 3 6 1031.5 1032.5 0.0
29/10:30am 7.7 5.5 3.2 73 2.0 NNW 4 9 2 5 1032.0 1033.0 0.0
29/10:00am 7.8 5.6 3.5 74 1.9 N 4 9 2 5 1032.1 1033.1 0.0
29/09:30am 7.9 5.5 2.4 68 2.3 NNW 4 9 2 5 1032.3 1033.3 0.0
29/09:00am 7.2 4.9 2.5 72 2.0 N 4 7 2 4 1032.4 1033.4 0.6
29/08:30am 6.2 4.6 2.3 76 1.6 CALM 0 6 0 3 1032.4 1033.4 0.6
29/08:00am 5.7 4.1 2.5 80 1.3 CALM 0 0 0 0 1032.1 1033.1 0.6
29/07:30am 5.8 4.0 3.3 84 1.1 NW 2 4 1 2 1031.9 1032.9 0.6
29/07:00am 5.9 4.8 4.9 93 0.4 CALM 0 2 0 1 1032.0 1033.0 0.6
29/06:30am 5.9 4.8 5.0 94 0.4 CALM 0 0 0 0 1032.0 1033.0 0.6
29/06:00am 5.9 4.8 5.0 94 0.4 CALM 0 0 0 0 1031.8 1032.8 0.6
29/05:30am 5.9 4.8 5.0 94 0.4 CALM 0 0 0 0 1031.6 1032.6 0.6
29/05:00am 6.0 4.9 5.1 94 0.4 CALM 0 0 0 0 1031.6 1032.6 0.6
29/04:30am 6.0 4.5 5.1 94 0.4 NW 2 4 1 2 1031.9 1032.9 0.6
29/04:00am 6.0 4.9 5.1 94 0.4 CALM 0 0 0 0 1031.8 1032.8 0.6
29/03:30am 6.1 4.7 5.4 95 0.3 NW 2 4 1 2 1032.0 1033.0 0.6
29/03:00am 6.2 5.2 5.5 95 0.3 CALM 0 0 0 0 1032.1 1033.1 0.6
29/02:30am 6.2 5.2 5.5 95 0.3 CALM 0 0 0 0 1032.4 1033.4 0.6
29/02:00am 6.2 5.2 5.5 95 0.3 CALM 0 2 0 1 1032.2 1033.2 0.6
29/01:30am 6.3 5.3 5.6 95 0.3 CALM 0 0 0 0 1032.0 1033.0 0.6
29/01:00am 6.5 5.2 5.8 95 0.3 NNW 2 6 1 3 1032.6 1033.6 0.6
29/12:30am 6.5 5.2 5.8 95 0.3 NW 2 7 1 4 1032.9 1033.9 0.6
29/12:00am 6.6 5.6 5.7 94 0.4 CALM 0 0 0 0 1033.0 1034.1 0.6
 
Date/Time
EST
Tmp

°C
App
Tmp
°C
Dew
Point
°C
Rel
Hum
%
Delta-T

°C
Wind Press
QNH
hPa
Press
MSL
hPa
Rain
since
9 am
mm
Dir
 
Spd
km/h
Gust
km/h
Spd
kts
Gust
kts
28/11:30pm 6.6 5.6 5.6 93 0.5 CALM 0 2 0 1 1032.9 1033.9 0.6
28/11:00pm 6.6 5.6 5.4 92 0.5 CALM 0 7 0 4 1033.1 1034.2 0.6
28/10:30pm 6.5 5.4 5.3 92 0.5 CALM 0 0 0 0 1033.2 1034.3 0.6
28/10:00pm 6.5 5.5 5.5 93 0.5 CALM 0 0 0 0 1033.4 1034.4 0.6
28/09:30pm 6.3 5.2 5.1 92 0.5 CALM 0 0 0 0 1033.5 1034.5 0.6
28/09:00pm 6.2 4.7 5.0 92 0.5 SW 2 6 1 3 1033.4 1034.4 0.6
28/08:30pm 6.3 5.2 5.1 92 0.5 CALM 0 0 0 0 1033.4 1034.4 0.6
28/08:00pm 6.2 5.1 5.2 93 0.4 CALM 0 2 0 1 1033.4 1034.4 0.6
28/07:30pm 6.0 4.1 5.0 93 0.4 WSW 4 9 2 5 1033.4 1034.4 0.6
28/07:00pm 5.5 3.9 4.6 94 0.4 SW 2 6 1 3 1033.2 1034.3 0.6
28/06:30pm 5.2 3.2 4.2 93 0.4 SW 4 6 2 3 1033.1 1034.2 0.6
28/06:00pm 5.4 3.4 4.4 93 0.4 SW 4 4 2 2 1033.0 1034.1 0.6
28/05:30pm 6.0 4.4 4.6 91 0.6 WSW 2 4 1 2 1032.8 1033.8 0.6
28/05:00pm 7.2 5.3 5.0 86 1.0 WSW 4 9 2 5 1032.8 1033.8 0.6
28/04:30pm 8.0 6.1 4.8 80 1.5 SW 4 11 2 6 1032.7 1033.7 0.6
28/04:00pm 9.6 7.9 6.1 79 1.6 WSW 4 7 2 4 1032.7 1033.7 0.6
28/03:30pm 9.3 7.6 5.9 79 1.6 WSW 4 6 2 3 1032.6 1033.6 0.6
28/03:00pm 9.0 7.3 6.1 82 1.4 SW 4 9 2 5 1032.6 1033.6 0.6
28/02:30pm 8.7 7.1 6.5 86 1.0 WSW 4 6 2 3 1032.5 1033.5 0.6
28/02:00pm 8.4 6.7 5.9 84 1.2 WSW 4 6 2 3 1032.7 1033.7 0.6
28/01:30pm 8.9 7.4 6.9 87 1.0 SW 4 9 2 5 1032.8 1033.8 0.6
28/01:00pm 8.2 6.6 6.5 89 0.8 SSW 4 7 2 4 1033.1 1034.2 0.6
28/12:30pm 7.7 6.1 6.2 90 0.7 WSW 4 6 2 3 1033.4 1034.4 0.6
28/12:00pm 7.3 5.7 6.4 94 0.4 WSW 4 9 2 5 1033.8 1034.8 0.6
28/11:30am 7.3 5.8 6.9 97 0.2 SW 4 9 2 5 1034.2 1035.2 0.6
28/11:00am 6.8 5.2 6.4 97 0.2 W 4 9 2 5 1034.5 1035.5 0.6
28/10:30am 6.5 4.8 6.1 97 0.2 WNW 4 9 2 5 1034.6 1035.6 0.6
28/10:00am 6.2 4.5 5.8 97 0.2 WNW 4 9 2 5 1034.4 1035.4 0.6
28/09:30am 5.9 4.5 5.5 97 0.2 W 2 6 1 3 1034.2 1035.2 0.6
28/09:00am 5.7 4.3 5.3 97 0.2 WSW 2 7 1 4 1033.9 1034.9 8.6
28/08:30am 5.5 3.6 5.1 97 0.2 WNW 4 7 2 4 1033.6 1034.6 8.6
28/08:00am 5.5 4.0 5.1 97 0.2 WNW 2 4 1 2 1033.2 1034.3 8.2
28/07:30am 5.4 3.9 5.0 97 0.2 W 2 4 1 2 1032.9 1033.9 8.0
28/07:00am 5.4 3.9 5.0 97 0.2 WNW 2 4 1 2 1032.5 1033.5 7.8
28/06:30am 5.4 3.9 5.0 97 0.2 W 2 6 1 3 1032.2 1033.2 7.0
28/06:00am 5.4 3.5 5.0 97 0.2 W 4 7 2 4 1031.8 1032.8 6.8
28/05:30am 5.4 3.5 5.0 97 0.2 WSW 4 7 2 4 1031.5 1032.5 5.8
28/05:00am 5.4 3.9 5.0 97 0.2 W 2 4 1 2 1031.1 1032.1 4.0
28/04:30am 5.3 3.4 4.9 97 0.2 NW 4 6 2 3 1030.9 1031.9 3.4
28/04:00am 5.3 3.8 4.9 97 0.2 WNW 2 4 1 2 1030.8 1031.8 2.6
28/03:30am 5.3 3.4 4.7 96 0.3 W 4 11 2 6 1030.7 1031.7 1.6
28/03:00am 5.3 3.7 4.7 96 0.3 WSW 2 6 1 3 1030.7 1031.7 1.4
28/02:30am 5.3 3.7 4.7 96 0.3 W 2 6 1 3 1030.5 1031.5 1.2
28/02:00am 5.3 3.4 4.7 96 0.3 WNW 4 11 2 6 1030.4 1031.4 1.0
28/01:30am 5.3 3.3 4.6 95 0.3 W 4 11 2 6 1030.2 1031.2 1.0
28/01:00am 5.3 3.3 4.6 95 0.3 W 4 13 2 7 1030.1 1031.1 1.0
28/12:30am 5.3 3.3 4.4 94 0.4 WNW 4 7 2 4 1030.2 1031.2 1.0
28/12:00am 5.3 3.3 4.4 94 0.4 WNW 4 7 2 4 1030.2 1031.2 1.0
 
Date/Time
EST
Tmp

°C
App
Tmp
°C
Dew
Point
°C
Rel
Hum
%
Delta-T

°C
Wind Press
QNH
hPa
Press
MSL
hPa
Rain
since
9 am
mm
Dir
 
Spd
km/h
Gust
km/h
Spd
kts
Gust
kts
27/11:30pm 5.3 3.3 4.4 94 0.4 WNW 4 9 2 5 1030.2 1031.2 1.0
27/11:00pm 5.4 3.4 4.4 93 0.4 WNW 4 7 2 4 1030.2 1031.2 1.0
27/10:30pm 5.6 3.6 4.6 93 0.4 W 4 7 2 4 1030.3 1031.3 1.0
27/10:00pm 5.7 3.7 4.5 92 0.5 WNW 4 15 2 8 1030.3 1031.3 1.0
27/09:30pm 5.7 3.7 4.3 91 0.6 W 4 6 2 3 1030.2 1031.2 1.0
27/09:00pm 5.8 3.8 4.3 90 0.7 W 4 6 2 3 1030.0 1031.0 1.0
27/08:30pm 6.0 4.0 4.3 89 0.8 W 4 11 2 6 1030.0 1031.0 1.0
27/08:00pm 6.0 3.9 3.8 86 1.0 W 4 6 2 3 1029.9 1030.9 1.0
27/07:30pm 6.1 3.9 3.4 83 1.2 W 4 11 2 6 1029.7 1030.6 1.0
27/07:00pm 6.1 4.0 4.1 87 0.9 W 4 13 2 7 1029.5 1030.4 1.0
27/06:30pm 6.3 3.8 4.0 85 1.0 WNW 6 13 3 7 1029.1 1030.1 1.0
27/06:00pm 6.4 4.3 4.1 85 1.0 W 4 9 2 5 1028.8 1029.8 1.0
27/05:30pm 6.5 4.5 4.2 85 1.0 W 4 9 2 5 1028.5 1029.5 1.0
27/05:00pm 6.5 4.0 3.8 83 1.2 W 6 19 3 10 1028.2 1029.2 1.0
27/04:30pm 6.8 4.7 3.9 82 1.3 W 4 6 2 3 1028.0 1028.9 1.0
27/04:00pm 7.1 4.7 4.1 81 1.3 W 6 17 3 9 1027.7 1028.6 1.0
27/03:30pm 7.4 5.4 4.2 80 1.4 WSW 4 11 2 6 1027.5 1028.4 1.0
27/03:00pm 7.5 5.5 4.6 82 1.3 W 4 7 2 4 1027.2 1028.1 1.0
27/02:30pm 6.9 4.6 4.6 85 1.0 WSW 6 13 3 7 1026.9 1027.9 1.0
27/02:00pm 6.5 4.1 4.5 87 0.9 WSW 6 9 3 5 1026.7 1027.7 1.0
27/01:30pm 6.3 3.9 4.5 88 0.8 WSW 6 15 3 8 1026.6 1027.6 1.0
27/01:00pm 5.9 3.5 4.4 90 0.7 W 6 20 3 11 1026.7 1027.7 1.0
27/12:30pm 5.6 3.6 4.4 92 0.5 W 4 7 2 4 1027.0 1028.0 1.0
27/12:00pm 5.5 4.0 4.8 95 0.3 W 2 7 1 4 1027.3 1028.2 1.0
27/11:30am 4.6 2.9 4.0 96 0.3 WNW 2 6 1 3 1027.3 1028.2 1.0
27/11:00am 4.1 2.3 3.5 96 0.3 W 2 6 1 3 1027.5 1028.4 0.8
27/10:30am 3.6 1.3 3.0 96 0.3 WNW 4 11 2 6 1027.3 1028.2 0.4
27/10:00am 3.2 0.5 2.5 95 0.3 WNW 6 11 3 6 1026.8 1027.8 0.4
27/09:30am 2.9 0.1 2.2 95 0.3 NW 6 11 3 6 1026.5 1027.5 0.4
27/09:00am 2.5 -0.4 1.6 94 0.4 NW 6 11 3 6 1026.1 1027.0 1.8
27/08:30am 2.5 -0.4 1.6 94 0.4 WNW 6 13 3 7 1025.7 1026.6 1.8
27/08:00am 2.3 -0.2 1.4 94 0.4 WNW 4 7 2 4 1025.2 1026.1 1.8
27/07:30am 2.4 -0.1 1.4 93 0.4 WNW 4 19 2 10 1024.7 1025.6 1.6
27/07:00am 2.4 -0.1 1.4 93 0.4 WNW 4 7 2 4 1024.3 1025.2 1.6
27/06:30am 2.3 -0.3 1.1 92 0.5 WNW 4 7 2 4 1024.0 1024.9 1.6
27/06:00am 2.2 -0.4 1.0 92 0.5 W 4 9 2 5 1023.6 1024.5 1.6
27/05:30am 2.0 -0.6 0.8 92 0.5 W 4 11 2 6 1023.3 1024.2 1.6
27/05:00am 2.0 -0.6 1.0 93 0.4 WNW 4 7 2 4 1022.9 1023.8 1.6
27/04:30am 1.8 -0.8 0.9 94 0.3 WNW 4 7 2 4 1022.6 1023.5 1.6
27/04:00am 1.4 -1.7 0.4 93 0.4 WNW 6 9 3 5 1022.3 1023.2 1.6
27/03:30am 2.0 -0.6 1.0 93 0.4 WNW 4 6 2 3 1022.2 1023.1 1.6
27/03:00am 1.9 -0.7 1.0 94 0.3 WNW 4 9 2 5 1022.0 1022.9 1.6
27/02:30am 1.9 -0.7 0.7 92 0.5 WNW 4 7 2 4 1021.7 1022.6 1.6
27/02:00am 2.3 -0.7 1.1 92 0.5 WNW 6 20 3 11 1021.6 1022.5 1.6
27/01:30am 2.5 0.0 1.5 93 0.4 W 4 13 2 7 1021.4 1022.2 1.6
27/01:00am 2.5 0.0 1.3 92 0.5 W 4 11 2 6 1021.0 1021.8 1.6
27/12:30am 2.6 -0.5 1.4 92 0.5 WNW 7 15 4 8 1020.7 1021.6 1.6
27/12:00am 2.7 -0.2 1.4 91 0.5 WNW 6 13 3 7 1020.7 1021.6 1.6
 
Date/Time
EST
Tmp

°C
App
Tmp
°C
Dew
Point
°C
Rel
Hum
%
Delta-T

°C
Wind Press
QNH
hPa
Press
MSL
hPa
Rain
since
9 am
mm
Dir
 
Spd
km/h
Gust
km/h
Spd
kts
Gust
kts
26/11:30pm 2.6 0.1 1.3 91 0.5 WNW 4 13 2 7 1020.4 1021.3 1.6
26/11:00pm 2.6 -0.4 1.0 89 0.6 W 6 20 3 11 1020.2 1021.1 1.6
26/10:30pm 2.6 0.0 0.8 88 0.7 WNW 4 11 2 6 1019.9 1020.8 1.6
26/10:00pm 2.6 0.0 1.1 90 0.6 W 4 7 2 4 1019.7 1020.5 1.6
26/09:30pm 2.6 -0.4 1.1 90 0.6 WNW 6 9 3 5 1019.5 1020.3 1.6
26/09:00pm 2.7 0.2 1.4 91 0.5 WNW 4 11 2 6 1019.2 1020.0 1.6
26/08:30pm 2.6 0.5 1.4 92 0.5 WSW 2 7 1 4 1018.7 1019.6 1.6
26/08:00pm 2.6 -0.3 1.6 93 0.4 W 6 13 3 7 1018.3 1019.2 1.6
26/07:30pm 2.7 0.2 1.7 93 0.4 W 4 13 2 7 1017.9 1018.7 1.6
26/07:00pm 2.7 0.2 1.7 93 0.4 WNW 4 9 2 5 1017.3 1018.1 1.6
26/06:30pm 2.8 0.0 1.9 94 0.4 WNW 6 9 3 5 1016.7 1017.6 1.6
26/06:00pm 2.6 0.1 1.7 94 0.4 W 4 9 2 5 1016.3 1017.1 1.6
26/05:30pm 2.7 0.2 1.7 93 0.4 W 4 11 2 6 1015.9 1016.7 1.6
26/05:00pm 3.9 1.0 1.3 83 1.0 WSW 6 20 3 11 1015.0 1015.8 0.8
26/04:30pm 3.4 0.2 0.8 83 1.0 SW 7 17 4 9 1015.1 1015.9 0.6
26/04:00pm 4.6 1.4 0.6 75 1.6 W 7 24 4 13 1014.4 1015.2 0.2
26/03:30pm 3.9 1.0 1.4 84 1.0 WNW 6 13 3 7 1014.4 1015.2 0.2
26/03:00pm 3.4 0.3 1.6 88 0.7 W 7 22 4 12 1014.2 1015.0 0.2
26/02:30pm 4.2 0.9 0.4 76 1.5 WSW 7 15 4 8 1013.7 1014.5 0.2
26/02:00pm 5.4 2.2 -0.4 66 2.3 W 6 15 3 8 1013.0 1013.7 0.0
26/01:30pm 5.4 2.4 0.6 71 1.9 WSW 6 17 3 9 1012.7 1013.4 0.0
26/01:00pm 4.6 1.0 0.4 74 1.7 WNW 9 28 5 15 1012.2 1013.0 0.0

Latest Capital City Observations: Canberra | Sydney | Melbourne | Brisbane | Adelaide | Perth | Hobart | Darwin

Other Formats:

Comma delimited format used in spreadsheet applications
http://www.bom.gov.au/fwo/IDV60901/IDV60901.94872.axf

JavaScript Object Notation format (JSON) in row-major order
http://www.bom.gov.au/fwo/IDV60901/IDV60901.94872.json